createdAt,value
2018-12-15T00:00:41.111Z,27.22
2018-12-15T00:03:09.359Z,26.23
2018-12-15T00:05:37.574Z,25.97
2018-12-15T00:08:06.192Z,25.35
2018-12-15T00:18:23.128Z,23.73
2018-12-15T00:20:51.371Z,23.55
2018-12-15T00:23:19.585Z,24.95
2018-12-15T00:25:47.823Z,23.77
2018-12-15T00:28:16.032Z,25.10
2018-12-15T00:30:57.555Z,23.17
2018-12-15T00:33:25.755Z,23.55
2018-12-15T00:35:54.101Z,22.52
2018-12-15T00:38:22.335Z,23.02
2018-12-15T00:41:03.714Z,22.22
2018-12-15T00:43:44.662Z,24.65
2018-12-15T00:46:12.891Z,23.90
2018-12-15T00:48:41.070Z,23.18
2018-12-15T00:51:21.898Z,22.37
2018-12-15T00:53:50.143Z,23.60
2018-12-15T00:56:18.418Z,24.12
2018-12-15T00:58:46.655Z,23.87
2018-12-15T01:01:27.242Z,23.52
2018-12-15T01:03:55.481Z,22.45
2018-12-15T01:06:23.860Z,25.43
2018-12-15T01:08:52.059Z,24.87
2018-12-15T01:11:32.916Z,25.48
2018-12-15T01:14:01.130Z,24.80
2018-12-15T01:16:29.366Z,25.23
2018-12-15T01:18:57.586Z,24.52
2018-12-15T01:21:32.018Z,24.37
2018-12-15T01:24:00.263Z,24.65
2018-12-15T01:26:28.494Z,24.35
2018-12-15T01:28:56.682Z,25.62
2018-12-15T01:31:26.685Z,24.40
2018-12-15T01:33:54.887Z,25.55
2018-12-15T01:36:23.126Z,23.90
2018-12-15T01:38:51.350Z,27.02
2018-12-15T01:41:32.076Z,25.62
2018-12-15T01:44:00.295Z,24.80
2018-12-15T01:46:28.477Z,24.63
2018-12-15T01:48:56.846Z,24.47
2018-12-15T01:51:40.020Z,25.23
2018-12-15T01:54:08.249Z,25.60
2018-12-15T01:56:36.454Z,25.70
2018-12-15T01:59:04.614Z,24.70
2018-12-15T02:01:47.028Z,25.23
2018-12-15T02:04:15.292Z,24.85
2018-12-15T02:06:43.473Z,25.80
2018-12-15T02:09:11.677Z,25.27
2018-12-15T02:11:53.131Z,26.12
2018-12-15T02:14:21.322Z,27.00
2018-12-15T02:16:49.579Z,26.12
2018-12-15T02:19:17.777Z,26.80
2018-12-15T02:21:59.562Z,27.22
2018-12-15T02:24:27.761Z,25.88
2018-12-15T02:26:55.987Z,25.17
2018-12-15T02:29:24.231Z,27.37
2018-12-15T02:32:04.854Z,26.00
2018-12-15T02:34:33.100Z,26.48
2018-12-15T02:37:14.464Z,28.42
2018-12-15T02:39:42.682Z,27.10
2018-12-15T02:42:24.066Z,26.55
2018-12-15T02:44:52.216Z,26.60
2018-12-15T02:47:20.439Z,28.87
2018-12-15T02:49:48.611Z,27.40
2018-12-15T02:52:16.830Z,28.05
2018-12-15T02:54:45.042Z,28.30
2018-12-15T02:57:13.309Z,29.27
2018-12-15T02:59:42.312Z,28.87
2018-12-15T03:02:10.593Z,28.80
2018-12-15T03:04:42.362Z,30.95
2018-12-15T03:07:10.593Z,28.38
2018-12-15T03:09:38.791Z,29.65
2018-12-15T03:12:19.832Z,29.27
2018-12-15T03:14:48.061Z,29.95
2018-12-15T03:17:16.353Z,29.52
2018-12-15T03:19:44.513Z,31.93
2018-12-15T03:22:12.704Z,29.67
2018-12-15T03:24:53.999Z,30.75
2018-12-15T03:27:22.428Z,29.23
2018-12-15T03:29:56.443Z,30.00
2018-12-15T03:32:24.710Z,30.43
2018-12-15T03:34:52.927Z,31.40
2018-12-15T03:37:21.105Z,30.77
2018-12-15T03:39:49.328Z,30.32
2018-12-15T03:42:17.579Z,31.33
2018-12-15T03:44:45.848Z,31.60
2018-12-15T03:47:14.102Z,30.50
2018-12-15T03:49:42.323Z,30.23
2018-12-15T03:52:10.533Z,31.00
2018-12-15T03:54:38.699Z,30.50
2018-12-15T03:57:06.936Z,31.95
2018-12-15T03:59:35.599Z,31.93
2018-12-15T04:02:17.035Z,32.42
2018-12-15T04:04:45.266Z,32.93
2018-12-15T04:07:13.510Z,31.80
2018-12-15T04:09:41.760Z,30.23
2018-12-15T04:12:26.871Z,31.20
2018-12-15T04:14:55.095Z,30.92
2018-12-15T04:17:23.307Z,31.62
2018-12-15T04:19:51.639Z,30.05
2018-12-15T04:22:20.809Z,28.98
2018-12-15T04:24:49.086Z,30.08
2018-12-15T04:27:17.295Z,29.87
2018-12-15T04:29:45.522Z,30.52
2018-12-15T04:32:13.757Z,29.90
2018-12-15T04:34:41.977Z,29.70
2018-12-15T04:37:10.179Z,30.02
2018-12-15T04:39:38.442Z,30.43
2018-12-15T04:42:06.724Z,29.63
2018-12-15T04:44:34.979Z,28.52
2018-12-15T04:47:03.244Z,29.52
2018-12-15T04:49:31.482Z,29.95
2018-12-15T04:52:12.693Z,28.95
2018-12-15T04:54:40.973Z,28.95
2018-12-15T04:57:09.215Z,27.73
2018-12-15T04:59:37.433Z,30.45
2018-12-15T05:02:18.011Z,29.95
2018-12-15T05:04:46.208Z,29.07
2018-12-15T05:07:14.433Z,28.87
2018-12-15T05:09:43.466Z,29.42
2018-12-15T05:12:11.664Z,29.32
2018-12-15T05:14:39.893Z,29.32
2018-12-15T05:17:08.116Z,29.23
2018-12-15T05:19:36.325Z,28.67
2018-12-15T05:22:17.825Z,28.30
2018-12-15T05:24:46.072Z,27.93
2018-12-15T05:27:15.215Z,28.73
2018-12-15T05:29:43.454Z,28.17
2018-12-15T05:32:11.644Z,27.90
2018-12-15T05:34:39.899Z,28.75
2018-12-15T05:37:08.124Z,27.32
2018-12-15T05:39:36.339Z,26.85
2018-12-15T05:42:21.127Z,27.10
2018-12-15T05:44:49.344Z,25.75
2018-12-15T05:47:17.502Z,26.50
2018-12-15T05:49:45.725Z,25.70
2018-12-15T05:52:13.918Z,25.62
2018-12-15T05:54:42.120Z,24.85
2018-12-15T05:57:10.273Z,24.43
2018-12-15T05:59:38.478Z,23.70
2018-12-15T06:02:11.502Z,23.42
2018-12-15T06:04:39.711Z,23.38
2018-12-15T06:07:07.918Z,24.50
2018-12-15T06:09:36.132Z,21.95
2018-12-15T06:12:07.906Z,23.57
2018-12-15T06:14:36.162Z,22.65
2018-12-15T06:17:04.392Z,22.45
2018-12-15T06:19:32.606Z,22.05
2018-12-15T06:22:13.381Z,22.62
2018-12-15T06:24:41.577Z,22.17
2018-12-15T06:27:09.787Z,21.87
2018-12-15T06:29:37.977Z,20.85
2018-12-15T06:32:20.714Z,21.87
2018-12-15T06:34:52.613Z,20.68
2018-12-15T06:37:21.508Z,20.88
2018-12-15T06:39:49.838Z,21.37
2018-12-15T06:42:18.035Z,19.17
2018-12-15T06:44:46.295Z,20.97
2018-12-15T06:47:28.156Z,18.80
2018-12-15T06:49:56.416Z,20.60
2018-12-15T06:52:24.656Z,19.42
2018-12-15T06:54:52.866Z,19.05
2018-12-15T06:57:21.103Z,19.17
2018-12-15T06:59:51.751Z,19.07
2018-12-15T07:02:20.502Z,19.23
2018-12-15T07:04:48.795Z,19.50
2018-12-15T07:07:17.115Z,18.45
2018-12-15T07:09:45.418Z,19.27
2018-12-15T07:12:13.602Z,19.15
2018-12-15T07:14:41.821Z,18.20
2018-12-15T07:17:10.043Z,18.60
2018-12-15T07:19:38.242Z,18.98
2018-12-15T07:22:19.680Z,18.55
2018-12-15T07:24:47.916Z,17.23
2018-12-15T07:27:16.096Z,18.15
2018-12-15T07:29:44.268Z,18.12
2018-12-15T07:32:12.486Z,19.40
2018-12-15T07:34:40.665Z,18.87
2018-12-15T07:37:15.003Z,18.60
2018-12-15T07:39:43.226Z,18.98
2018-12-15T07:42:11.442Z,17.77
2018-12-15T07:44:39.752Z,19.27
2018-12-15T07:47:08.843Z,19.20
2018-12-15T07:49:37.069Z,18.30
2018-12-15T07:52:18.043Z,19.15
2018-12-15T07:54:46.280Z,18.67
2018-12-15T07:57:14.458Z,17.87
2018-12-15T07:59:42.707Z,18.48
2018-12-15T08:02:10.913Z,18.37
2018-12-15T08:04:39.169Z,18.37
2018-12-15T08:07:07.460Z,18.50
2018-12-15T08:09:36.102Z,19.00
2018-12-15T08:12:13.198Z,19.65
2018-12-15T08:14:41.428Z,18.20
2018-12-15T08:17:09.672Z,18.02
2018-12-15T08:19:37.919Z,19.25
2018-12-15T08:22:09.772Z,17.45
2018-12-15T08:24:37.940Z,19.87
2018-12-15T08:27:07.829Z,18.87
2018-12-15T08:29:36.032Z,18.00
2018-12-15T08:32:07.962Z,18.70
2018-12-15T08:34:36.122Z,18.90
2018-12-15T08:37:04.395Z,19.67
2018-12-15T08:39:32.610Z,17.50
2018-12-15T08:42:06.507Z,17.37
2018-12-15T08:44:34.746Z,17.98
2018-12-15T08:47:03.038Z,18.45
2018-12-15T08:49:31.258Z,16.82
2018-12-15T08:52:02.611Z,19.10
2018-12-15T08:54:30.849Z,17.40
2018-12-15T08:56:59.120Z,17.52
2018-12-15T08:59:27.367Z,18.27
2018-12-15T09:01:59.308Z,18.23
2018-12-15T09:04:27.949Z,18.48
2018-12-15T09:07:08.871Z,18.82
2018-12-15T09:09:37.069Z,18.90
2018-12-15T09:12:09.089Z,18.77
2018-12-15T09:14:37.358Z,18.62
2018-12-15T09:17:05.567Z,19.20
2018-12-15T09:19:33.794Z,18.80
2018-12-15T09:22:11.378Z,19.92
2018-12-15T09:24:35.883Z,17.92
2018-12-15T09:27:04.135Z,18.42
2018-12-15T09:29:32.702Z,19.55
2018-12-15T09:32:04.693Z,19.77
2018-12-15T09:34:33.661Z,18.05
2018-12-15T09:37:02.028Z,19.10
2018-12-15T09:39:30.507Z,19.07
2018-12-15T09:42:04.925Z,18.75
2018-12-15T09:44:33.133Z,19.15
2018-12-15T09:47:01.349Z,18.98
2018-12-15T09:49:29.537Z,18.12
2018-12-15T09:52:17.100Z,18.27
2018-12-15T09:54:45.266Z,18.65
2018-12-15T09:57:13.461Z,19.87
2018-12-15T09:59:41.708Z,20.80
2018-12-15T10:02:09.929Z,19.85
2018-12-15T10:04:38.135Z,19.57
2018-12-15T10:07:06.378Z,19.48
2018-12-15T10:09:34.553Z,19.70
2018-12-15T10:12:06.207Z,20.15
2018-12-15T10:14:34.362Z,19.48
2018-12-15T10:17:02.621Z,18.87
2018-12-15T10:19:30.792Z,18.23
2018-12-15T10:22:03.116Z,19.30
2018-12-15T10:24:31.553Z,19.70
2018-12-15T10:26:59.763Z,18.92
2018-12-15T10:29:47.376Z,19.05
2018-12-15T10:32:21.203Z,19.73
2018-12-15T10:34:49.412Z,17.65
2018-12-15T10:37:17.802Z,19.77
2018-12-15T10:39:45.990Z,18.70
2018-12-15T10:42:14.226Z,19.67
2018-12-15T10:44:42.430Z,20.05
2018-12-15T10:47:10.893Z,19.60
2018-12-15T10:49:39.113Z,20.55
2018-12-15T10:52:11.025Z,19.42
2018-12-15T10:54:39.266Z,19.32
2018-12-15T10:57:07.506Z,20.37
2018-12-15T10:59:35.698Z,19.35
2018-12-15T11:02:06.834Z,20.10
2018-12-15T11:04:35.047Z,19.20
2018-12-15T11:07:03.303Z,19.92
2018-12-15T11:09:31.495Z,19.15
2018-12-15T11:12:03.515Z,20.02
2018-12-15T11:14:31.675Z,19.40
2018-12-15T11:16:59.874Z,20.88
2018-12-15T11:19:28.115Z,20.68
2018-12-15T11:21:59.990Z,20.72
2018-12-15T11:24:28.209Z,19.55
2018-12-15T11:26:56.416Z,20.05
2018-12-15T11:29:24.640Z,18.57
2018-12-15T11:31:58.883Z,20.05
2018-12-15T11:34:27.113Z,20.70
2018-12-15T11:36:55.366Z,20.27
2018-12-15T11:39:23.623Z,19.90
2018-12-15T11:41:54.775Z,19.90
2018-12-15T11:44:22.987Z,19.50
2018-12-15T11:46:51.230Z,19.80
2018-12-15T11:49:19.467Z,19.65
2018-12-15T11:51:50.833Z,17.80
2018-12-15T11:54:32.446Z,21.23
2018-12-15T11:57:00.646Z,20.95
2018-12-15T11:59:28.962Z,20.05
2018-12-15T12:02:00.301Z,20.23
2018-12-15T12:04:28.526Z,19.37
2018-12-15T12:06:56.738Z,19.77
2018-12-15T12:09:25.093Z,20.60
2018-12-15T12:11:56.517Z,20.30
2018-12-15T12:14:24.756Z,19.12
2018-12-15T12:16:53.002Z,19.52
2018-12-15T12:19:21.263Z,19.98
2018-12-15T12:21:52.535Z,20.27
2018-12-15T12:24:20.998Z,19.60
2018-12-15T12:26:49.257Z,20.90
2018-12-15T12:29:17.519Z,20.52
2018-12-15T12:31:49.053Z,19.87
2018-12-15T12:34:17.264Z,19.65
2018-12-15T12:36:45.464Z,19.57
2018-12-15T12:39:13.651Z,20.15
2018-12-15T12:41:44.854Z,20.23
2018-12-15T12:44:13.093Z,21.23
2018-12-15T12:46:41.330Z,19.20
2018-12-15T12:49:09.553Z,20.68
2018-12-15T12:51:41.283Z,19.05
2018-12-15T12:54:09.460Z,20.85
2018-12-15T12:56:37.617Z,20.55
2018-12-15T12:59:05.802Z,20.27
2018-12-15T13:01:37.841Z,19.62
2018-12-15T13:04:06.078Z,20.17
2018-12-15T13:06:34.274Z,19.55
2018-12-15T13:09:02.536Z,20.35
2018-12-15T13:11:36.897Z,19.82
2018-12-15T13:14:05.190Z,21.55
2018-12-15T13:16:33.388Z,21.07
2018-12-15T13:19:01.714Z,21.37
2018-12-15T13:21:33.663Z,20.90
2018-12-15T13:24:02.341Z,21.75
2018-12-15T13:26:30.576Z,21.10
2018-12-15T13:28:58.828Z,19.65
2018-12-15T13:31:30.550Z,21.00
2018-12-15T13:33:59.223Z,20.95
2018-12-15T13:36:27.496Z,21.55
2018-12-15T13:38:55.803Z,21.07
2018-12-15T13:41:27.753Z,22.58
2018-12-15T13:43:57.792Z,23.12
2018-12-15T13:46:26.675Z,22.37
2018-12-15T13:48:54.947Z,20.88
2018-12-15T13:51:34.967Z,21.55
2018-12-15T13:54:06.186Z,20.52
2018-12-15T13:56:34.633Z,21.97
2018-12-15T13:59:02.984Z,21.87
2018-12-15T14:01:37.966Z,21.35
2018-12-15T14:04:06.202Z,22.80
2018-12-15T14:06:34.500Z,22.32
2018-12-15T14:09:02.726Z,22.87
2018-12-15T14:11:34.372Z,22.98
2018-12-15T14:14:02.669Z,25.25
2018-12-15T14:16:38.574Z,22.20
2018-12-15T14:19:06.925Z,22.95
2018-12-15T14:21:38.445Z,22.15
2018-12-15T14:24:06.818Z,21.73
2018-12-15T14:26:35.107Z,22.93
2018-12-15T14:29:03.498Z,20.88
2018-12-15T14:31:34.863Z,22.65
2018-12-15T14:34:03.067Z,23.92
2018-12-15T14:36:31.455Z,23.20
2018-12-15T14:38:59.695Z,22.37
2018-12-15T14:41:32.297Z,21.82
2018-12-15T14:44:00.695Z,23.07
2018-12-15T14:46:28.926Z,21.75
2018-12-15T14:48:59.655Z,22.50
2018-12-15T14:51:38.507Z,22.55
2018-12-15T14:54:06.762Z,22.22
2018-12-15T14:56:34.985Z,23.85
2018-12-15T14:59:03.236Z,23.47
2018-12-15T15:01:34.507Z,23.45
2018-12-15T15:04:02.725Z,23.55
2018-12-15T15:06:30.993Z,24.20
2018-12-15T15:08:59.227Z,23.75
2018-12-15T15:11:31.287Z,22.15
2018-12-15T15:13:59.534Z,24.02
2018-12-15T15:16:27.721Z,23.52
2018-12-15T15:18:55.910Z,24.67
2018-12-15T15:21:27.729Z,24.35
2018-12-15T15:23:55.934Z,25.68
2018-12-15T15:26:24.150Z,23.73
2018-12-15T15:28:52.320Z,22.52
2018-12-15T15:31:23.946Z,23.87
2018-12-15T15:33:52.361Z,22.13
2018-12-15T15:36:20.554Z,23.18
2018-12-15T15:38:48.749Z,22.90
2018-12-15T15:41:20.329Z,23.02
2018-12-15T15:43:48.578Z,21.33
2018-12-15T15:46:18.479Z,22.67
2018-12-15T15:48:46.750Z,22.00
2018-12-15T15:51:18.702Z,22.32
2018-12-15T15:53:46.890Z,22.42
2018-12-15T15:56:15.110Z,24.37
2018-12-15T15:58:43.274Z,23.60
2018-12-15T16:01:17.158Z,24.02
2018-12-15T16:03:45.359Z,22.95
2018-12-15T16:06:13.587Z,22.80
2018-12-15T16:08:41.784Z,22.67
2018-12-15T16:11:13.673Z,21.95
2018-12-15T16:13:41.867Z,23.62
2018-12-15T16:19:10.240Z,23.30
2018-12-15T16:21:51.261Z,23.30
2018-12-15T16:24:19.521Z,23.07
2018-12-15T16:27:04.348Z,23.62
2018-12-15T16:29:32.646Z,24.20
2018-12-15T16:32:14.510Z,22.22
2018-12-15T16:34:42.751Z,23.05
2018-12-15T16:37:10.952Z,22.00
2018-12-15T16:39:39.167Z,22.90
2018-12-15T16:42:21.090Z,23.50
2018-12-15T16:44:49.268Z,23.70
2018-12-15T16:47:17.568Z,24.92
2018-12-15T16:49:45.856Z,23.27
2018-12-15T16:52:14.069Z,24.57
2018-12-15T16:54:42.320Z,24.05
2018-12-15T16:57:10.734Z,23.65
2018-12-15T16:59:38.897Z,23.30
2018-12-15T17:02:13.641Z,22.77
2018-12-15T17:04:41.908Z,23.32
2018-12-15T17:07:10.164Z,23.42
2018-12-15T17:09:38.366Z,25.52
2018-12-15T17:12:12.356Z,24.43
2018-12-15T17:14:40.652Z,25.10
2018-12-15T17:17:21.592Z,25.92
2018-12-15T17:19:51.737Z,25.37
2018-12-15T17:22:19.951Z,25.05
2018-12-15T17:24:48.168Z,24.25
2018-12-15T17:27:33.023Z,23.07
2018-12-15T17:30:01.263Z,22.22
2018-12-15T17:32:29.509Z,22.45
2018-12-15T17:34:57.790Z,24.27
2018-12-15T17:37:25.993Z,24.47
2018-12-15T17:39:54.180Z,25.37
2018-12-15T17:42:22.347Z,27.50
2018-12-15T17:44:50.639Z,24.85
2018-12-15T17:47:18.896Z,24.47
2018-12-15T17:49:50.800Z,24.23
2018-12-15T17:52:31.910Z,25.50
2018-12-15T17:55:00.110Z,23.87
2018-12-15T17:57:28.315Z,23.42
2018-12-15T18:00:00.213Z,22.42
2018-12-15T18:02:28.461Z,23.47
2018-12-15T18:04:56.651Z,24.43
2018-12-15T18:07:24.869Z,24.35
2018-12-15T18:09:58.757Z,26.15
2018-12-15T18:12:26.943Z,26.12
2018-12-15T18:14:55.150Z,25.60
2018-12-15T18:17:23.400Z,24.18
2018-12-15T18:19:54.481Z,23.27
2018-12-15T18:22:22.724Z,23.32
2018-12-15T18:24:50.930Z,24.45
2018-12-15T18:27:19.099Z,23.38
2018-12-15T18:29:50.805Z,25.88
2018-12-15T18:32:19.017Z,23.83
2018-12-15T18:34:47.211Z,25.90
2018-12-15T18:37:15.402Z,27.55
2018-12-15T18:39:43.620Z,23.90
2018-12-15T18:42:11.899Z,23.70
2018-12-15T18:44:40.183Z,25.02
2018-12-15T18:47:08.532Z,24.75
2018-12-15T18:49:36.755Z,25.43
2018-12-15T18:52:07.871Z,27.22
2018-12-15T18:54:36.102Z,25.45
2018-12-15T18:57:04.427Z,25.82
2018-12-15T18:59:32.750Z,25.23
2018-12-15T19:02:04.711Z,25.65
2018-12-15T19:04:32.902Z,26.33
2018-12-15T19:07:01.078Z,23.90
2018-12-15T19:09:29.294Z,25.77
2018-12-15T19:12:02.630Z,24.82
2018-12-15T19:14:31.141Z,24.00
2018-12-15T19:16:59.713Z,28.80
2018-12-15T19:19:32.295Z,26.27
2018-12-15T19:22:15.063Z,23.50
2018-12-15T19:24:43.435Z,23.35
2018-12-15T19:27:11.633Z,22.58
2018-12-15T19:29:39.903Z,25.12
2018-12-15T19:32:11.839Z,24.55
2018-12-15T19:34:40.112Z,24.92
2018-12-15T19:37:08.414Z,25.90
2018-12-15T19:39:36.680Z,25.77
2018-12-15T19:42:09.018Z,25.10
2018-12-15T19:44:37.387Z,24.85
2018-12-15T19:47:05.567Z,25.32
2018-12-15T19:49:33.873Z,24.50
2018-12-15T19:52:05.540Z,26.75
2018-12-15T19:54:33.787Z,26.80
2018-12-15T19:57:02.183Z,24.95
2018-12-15T19:59:30.343Z,24.40
2018-12-15T20:05:03.766Z,25.62
2018-12-15T20:07:31.999Z,26.02
2018-12-15T20:10:00.286Z,26.02
2018-12-15T20:12:28.485Z,25.25
2018-12-15T20:14:56.689Z,24.90
2018-12-15T20:17:24.948Z,26.30
2018-12-15T20:19:53.159Z,25.48
2018-12-15T20:22:21.423Z,26.12
2018-12-15T20:24:49.850Z,24.95
2018-12-15T20:27:18.016Z,26.25
2018-12-15T20:29:46.279Z,25.68
2018-12-15T20:32:14.447Z,25.27
2018-12-15T20:37:17.005Z,24.92
2018-12-15T20:39:45.173Z,25.75
2018-12-15T20:42:13.473Z,25.97
2018-12-15T20:44:41.994Z,26.30
2018-12-15T20:47:10.272Z,25.10
2018-12-15T20:49:38.651Z,26.20
2018-12-15T20:52:10.119Z,25.50
2018-12-15T20:54:38.395Z,23.83
2018-12-15T20:57:08.072Z,26.07
2018-12-15T20:59:36.402Z,25.35
2018-12-15T21:02:17.529Z,24.67
2018-12-15T21:04:45.713Z,26.00
2018-12-15T21:07:13.929Z,25.88
2018-12-15T21:09:42.965Z,28.20
2018-12-15T21:12:11.140Z,26.10
2018-12-15T21:14:39.407Z,27.75
2018-12-15T21:17:07.661Z,26.60
2018-12-15T21:19:35.967Z,27.65
2018-12-15T21:22:10.532Z,26.93
2018-12-15T21:24:39.363Z,25.57
2018-12-15T21:27:07.616Z,28.23
2018-12-15T21:29:48.389Z,28.10
2018-12-15T21:32:16.660Z,26.00
2018-12-15T21:34:44.898Z,27.48
2018-12-15T21:37:13.111Z,27.90
2018-12-15T21:39:41.832Z,28.12
2018-12-15T21:42:10.095Z,26.57
2018-12-15T21:44:38.436Z,28.60
2018-12-15T21:47:06.657Z,26.30
2018-12-15T21:49:34.851Z,25.50
2018-12-15T21:52:06.285Z,27.58
2018-12-15T21:54:34.512Z,27.05
2018-12-15T21:57:02.775Z,25.25
2018-12-15T21:59:31.015Z,25.72
2018-12-15T22:02:02.696Z,27.13
2018-12-15T22:04:30.907Z,25.68
2018-12-15T22:06:59.160Z,25.72
2018-12-15T22:09:27.349Z,26.40
2018-12-15T22:11:59.202Z,25.50
2018-12-15T22:14:27.406Z,25.43
2018-12-15T22:16:55.615Z,23.55
2018-12-15T22:19:24.460Z,26.62
2018-12-15T22:22:02.797Z,25.35
2018-12-15T22:24:26.330Z,24.32
2018-12-15T22:26:54.557Z,26.10
2018-12-15T22:29:22.765Z,24.35
2018-12-15T22:31:54.801Z,26.75
2018-12-15T22:34:23.009Z,25.05
2018-12-15T22:36:51.227Z,26.62
2018-12-15T22:39:19.425Z,23.90
2018-12-15T22:41:53.685Z,25.77
2018-12-15T22:44:21.867Z,26.48
2018-12-15T22:46:50.123Z,24.67
2018-12-15T22:49:18.322Z,27.55
2018-12-15T22:51:50.301Z,28.07
2018-12-15T22:54:18.498Z,26.17
2018-12-15T22:56:46.753Z,27.17
2018-12-15T22:59:14.982Z,24.45
2018-12-15T23:01:46.850Z,26.75
2018-12-15T23:04:15.126Z,26.85
2018-12-15T23:06:43.432Z,26.40
2018-12-15T23:09:11.714Z,25.92
2018-12-15T23:11:42.836Z,27.45
2018-12-15T23:14:11.088Z,27.52
2018-12-15T23:16:39.346Z,27.25
2018-12-15T23:19:07.617Z,25.88
2018-12-15T23:21:39.471Z,27.30
2018-12-15T23:24:07.671Z,26.95
2018-12-15T23:26:35.891Z,26.57
2018-12-15T23:29:04.194Z,29.00
2018-12-15T23:31:35.358Z,27.65
2018-12-15T23:34:03.545Z,28.47
2018-12-15T23:36:31.714Z,26.73
2018-12-15T23:38:59.894Z,27.93
2018-12-15T23:41:31.256Z,27.27
2018-12-15T23:43:59.471Z,27.42
2018-12-15T23:46:27.640Z,27.80
2018-12-15T23:48:55.878Z,28.42
2018-12-15T23:51:27.114Z,26.80
2018-12-15T23:53:55.309Z,26.57
2018-12-15T23:56:23.543Z,26.00
2018-12-15T23:58:51.718Z,28.27
